sensor_id;sensor_type;location;lat;lon;timestamp;pressure;altitude;pressure_sealevel;temperature;humidity
42385;BME280;28042;43.986;22.860;2023-01-26T00:01:15;102320.56;;;-0.03;100.00
42385;BME280;28042;43.986;22.860;2023-01-26T00:03:41;102314.00;;;-0.13;100.00
42385;BME280;28042;43.986;22.860;2023-01-26T00:06:07;102302.78;;;-0.20;100.00
42385;BME280;28042;43.986;22.860;2023-01-26T00:08:36;102307.28;;;-0.20;100.00
42385;BME280;28042;43.986;22.860;2023-01-26T00:11:05;102294.28;;;-0.12;100.00
42385;BME280;28042;43.986;22.860;2023-01-26T00:13:31;102286.16;;;-0.26;100.00
42385;BME280;28042;43.986;22.860;2023-01-26T00:15:57;102298.72;;;-0.27;100.00
42385;BME280;28042;43.986;22.860;2023-01-26T00:18:22;102291.53;;;-0.26;100.00
42385;BME280;28042;43.986;22.860;2023-01-26T00:20:47;102293.97;;;-0.22;100.00
42385;BME280;28042;43.986;22.860;2023-01-26T00:23:14;102300.59;;;-0.13;100.00
42385;BME280;28042;43.986;22.860;2023-01-26T00:25:39;102296.75;;;-0.23;100.00
42385;BME280;28042;43.986;22.860;2023-01-26T00:28:05;102305.75;;;-0.24;100.00
42385;BME280;28042;43.986;22.860;2023-01-26T00:30:30;102302.88;;;-0.21;100.00
42385;BME280;28042;43.986;22.860;2023-01-26T00:32:55;102308.56;;;-0.12;100.00
42385;BME280;28042;43.986;22.860;2023-01-26T00:35:22;102307.44;;;-0.08;100.00
42385;BME280;28042;43.986;22.860;2023-01-26T00:37:47;102299.31;;;-0.06;100.00
42385;BME280;28042;43.986;22.860;2023-01-26T00:40:12;102298.16;;;-0.02;100.00
42385;BME280;28042;43.986;22.860;2023-01-26T00:42:38;102302.94;;;-0.07;100.00
42385;BME280;28042;43.986;22.860;2023-01-26T00:45:04;102287.97;;;-0.11;100.00
42385;BME280;28042;43.986;22.860;2023-01-26T00:47:29;102292.25;;;-0.23;100.00
42385;BME280;28042;43.986;22.860;2023-01-26T00:49:54;102277.78;;;-0.20;100.00
42385;BME280;28042;43.986;22.860;2023-01-26T00:52:20;102288.94;;;-0.28;100.00
42385;BME280;28042;43.986;22.860;2023-01-26T00:54:45;102288.94;;;-0.28;100.00
42385;BME280;28042;43.986;22.860;2023-01-26T00:57:10;102274.22;;;-0.21;100.00
42385;BME280;28042;43.986;22.860;2023-01-26T00:59:36;102279.34;;;-0.16;100.00
42385;BME280;28042;43.986;22.860;2023-01-26T01:02:01;102276.06;;;-0.21;100.00
42385;BME280;28042;43.986;22.860;2023-01-26T01:04:30;102276.47;;;-0.13;100.00
42385;BME280;28042;43.986;22.860;2023-01-26T01:06:56;102276.81;;;-0.19;100.00
42385;BME280;28042;43.986;22.860;2023-01-26T01:09:21;102279.91;;;-0.11;100.00
42385;BME280;28042;43.986;22.860;2023-01-26T01:11:46;102273.78;;;-0.13;100.00
42385;BME280;28042;43.986;22.860;2023-01-26T01:14:12;102270.25;;;-0.14;100.00
42385;BME280;28042;43.986;22.860;2023-01-26T01:16:38;102285.13;;;-0.08;100.00
42385;BME280;28042;43.986;22.860;2023-01-26T01:19:04;102276.47;;;-0.13;100.00
42385;BME280;28042;43.986;22.860;2023-01-26T01:21:29;102272.47;;;-0.06;100.00
42385;BME280;28042;43.986;22.860;2023-01-26T01:23:56;102257.25;;;-0.06;100.00
42385;BME280;28042;43.986;22.860;2023-01-26T01:26:21;102262.09;;;-0.12;100.00
42385;BME280;28042;43.986;22.860;2023-01-26T01:28:47;102263.66;;;-0.08;100.00
42385;BME280;28042;43.986;22.860;2023-01-26T01:31:13;102260.56;;;-0.16;100.00
42385;BME280;28042;43.986;22.860;2023-01-26T01:33:38;102249.66;;;-0.13;100.00
42385;BME280;28042;43.986;22.860;2023-01-26T01:36:05;102251.03;;;-0.06;100.00
42385;BME280;28042;43.986;22.860;2023-01-26T01:38:31;102231.69;;;0.03;100.00
42385;BME280;28042;43.986;22.860;2023-01-26T01:40:57;102238.56;;;-0.07;100.00
42385;BME280;28042;43.986;22.860;2023-01-26T01:43:23;102239.28;;;-0.19;100.00
42385;BME280;28042;43.986;22.860;2023-01-26T01:45:49;102233.13;;;-0.06;100.00
42385;BME280;28042;43.986;22.860;2023-01-26T01:48:24;102228.00;;;-0.10;100.00
42385;BME280;28042;43.986;22.860;2023-01-26T01:50:53;102227.34;;;-0.14;100.00
42385;BME280;28042;43.986;22.860;2023-01-26T01:53:35;102221.97;;;-0.14;100.00
42385;BME280;28042;43.986;22.860;2023-01-26T01:56:03;102221.88;;;-0.12;100.00
42385;BME280;28042;43.986;22.860;2023-01-26T01:58:30;102225.41;;;-0.12;100.00
42385;BME280;28042;43.986;22.860;2023-01-26T02:00:57;102226.97;;;-0.08;100.00
42385;BME280;28042;43.986;22.860;2023-01-26T02:03:23;102224.97;;;-0.04;100.00
42385;BME280;28042;43.986;22.860;2023-01-26T02:08:15;102224.00;;;-0.03;100.00
42385;BME280;28042;43.986;22.860;2023-01-26T02:10:42;102222.44;;;-0.21;100.00
42385;BME280;28042;43.986;22.860;2023-01-26T02:13:10;102213.00;;;-0.29;100.00
42385;BME280;28042;43.986;22.860;2023-01-26T02:15:36;102209.97;;;-0.22;100.00
42385;BME280;28042;43.986;22.860;2023-01-26T02:18:02;102213.06;;;-0.14;100.00
42385;BME280;28042;43.986;22.860;2023-01-26T02:20:49;102218.53;;;-0.16;100.00
42385;BME280;28042;43.986;22.860;2023-01-26T02:25:44;102196.53;;;-0.07;100.00
42385;BME280;28042;43.986;22.860;2023-01-26T02:28:13;102189.75;;;0.02;100.00
42385;BME280;28042;43.986;22.860;2023-01-26T02:30:38;102187.31;;;-0.03;100.00
42385;BME280;28042;43.986;22.860;2023-01-26T02:33:04;102172.38;;;-0.07;100.00
42385;BME280;28042;43.986;22.860;2023-01-26T02:35:29;102178.63;;;-0.06;100.00
42385;BME280;28042;43.986;22.860;2023-01-26T02:37:56;102185.22;;;0.03;100.00
42385;BME280;28042;43.986;22.860;2023-01-26T02:42:50;102178.16;;;0.02;100.00
42385;BME280;28042;43.986;22.860;2023-01-26T02:45:18;102176.88;;;-0.07;100.00
42385;BME280;28042;43.986;22.860;2023-01-26T02:47:44;102168.16;;;-0.11;100.00
42385;BME280;28042;43.986;22.860;2023-01-26T02:50:10;102164.81;;;-0.14;100.00
42385;BME280;28042;43.986;22.860;2023-01-26T02:52:35;102173.03;;;-0.03;100.00
42385;BME280;28042;43.986;22.860;2023-01-26T02:55:00;102168.28;;;0.02;100.00
42385;BME280;28042;43.986;22.860;2023-01-26T02:57:44;102166.16;;;0.07;100.00
42385;BME280;28042;43.986;22.860;2023-01-26T03:00:20;102164.44;;;0.06;100.00
42385;BME280;28042;43.986;22.860;2023-01-26T03:02:46;102163.47;;;-0.07;100.00
42385;BME280;28042;43.986;22.860;2023-01-26T03:05:13;102153.78;;;-0.10;100.00
42385;BME280;28042;43.986;22.860;2023-01-26T03:07:38;102154.84;;;-0.12;100.00
42385;BME280;28042;43.986;22.860;2023-01-26T03:10:04;102154.75;;;-0.11;100.00
42385;BME280;28042;43.986;22.860;2023-01-26T03:12:29;102150.84;;;-0.05;100.00
42385;BME280;28042;43.986;22.860;2023-01-26T03:14:55;102148.50;;;-0.11;100.00
42385;BME280;28042;43.986;22.860;2023-01-26T03:17:40;102145.66;;;-0.08;100.00
42385;BME280;28042;43.986;22.860;2023-01-26T03:20:06;102129.75;;;-0.11;100.00
42385;BME280;28042;43.986;22.860;2023-01-26T03:22:50;102130.69;;;-0.12;100.00
42385;BME280;28042;43.986;22.860;2023-01-26T03:25:35;102125.72;;;-0.04;100.00
42385;BME280;28042;43.986;22.860;2023-01-26T03:28:19;102128.63;;;-0.07;100.00
42385;BME280;28042;43.986;22.860;2023-01-26T03:30:49;102124.78;;;-0.17;100.00
42385;BME280;28042;43.986;22.860;2023-01-26T03:33:15;102128.00;;;-0.12;100.00
42385;BME280;28042;43.986;22.860;2023-01-26T03:35:41;102127.75;;;-0.08;100.00
42385;BME280;28042;43.986;22.860;2023-01-26T03:38:06;102123.88;;;-0.18;100.00
42385;BME280;28042;43.986;22.860;2023-01-26T03:40:32;102114.69;;;-0.28;100.00
42385;BME280;28042;43.986;22.860;2023-01-26T03:43:16;102117.66;;;-0.18;100.00
42385;BME280;28042;43.986;22.860;2023-01-26T03:46:03;102118.63;;;-0.19;100.00
42385;BME280;28042;43.986;22.860;2023-01-26T03:48:47;102115.53;;;-0.28;100.00
42385;BME280;28042;43.986;22.860;2023-01-26T03:51:30;102110.56;;;-0.19;100.00
42385;BME280;28042;43.986;22.860;2023-01-26T03:54:14;102114.31;;;-0.22;100.00
42385;BME280;28042;43.986;22.860;2023-01-26T03:56:58;102099.38;;;-0.26;100.00
42385;BME280;28042;43.986;22.860;2023-01-26T03:59:24;102104.09;;;-0.15;100.00
42385;BME280;28042;43.986;22.860;2023-01-26T04:02:02;102101.41;;;-0.15;100.00
42385;BME280;28042;43.986;22.860;2023-01-26T04:04:46;102093.16;;;-0.12;100.00
42385;BME280;28042;43.986;22.860;2023-01-26T04:07:30;102090.69;;;-0.15;100.00
42385;BME280;28042;43.986;22.860;2023-01-26T04:10:14;102082.25;;;-0.23;100.00
42385;BME280;28042;43.986;22.860;2023-01-26T04:12:39;102075.41;;;-0.29;100.00
42385;BME280;28042;43.986;22.860;2023-01-26T04:15:05;102085.78;;;-0.23;100.00
42385;BME280;28042;43.986;22.860;2023-01-26T04:17:49;102082.03;;;-0.20;100.00
42385;BME280;28042;43.986;22.860;2023-01-26T04:20:33;102075.16;;;-0.10;100.00
42385;BME280;28042;43.986;22.860;2023-01-26T04:23:18;102079.47;;;-0.22;100.00
42385;BME280;28042;43.986;22.860;2023-01-26T04:25:43;102076.19;;;-0.27;100.00
42385;BME280;28042;43.986;22.860;2023-01-26T04:28:08;102074.59;;;-0.15;100.00
42385;BME280;28042;43.986;22.860;2023-01-26T04:30:34;102077.28;;;-0.15;100.00
42385;BME280;28042;43.986;22.860;2023-01-26T04:32:59;102069.22;;;-0.15;100.00
42385;BME280;28042;43.986;22.860;2023-01-26T04:35:24;102069.22;;;-0.15;100.00
42385;BME280;28042;43.986;22.860;2023-01-26T04:37:50;102062.03;;;-0.15;100.00
42385;BME280;28042;43.986;22.860;2023-01-26T04:40:15;102060.78;;;-0.23;100.00
42385;BME280;28042;43.986;22.860;2023-01-26T04:42:40;102064.41;;;-0.39;100.00
42385;BME280;28042;43.986;22.860;2023-01-26T04:45:06;102058.84;;;-0.36;100.00
42385;BME280;28042;43.986;22.860;2023-01-26T04:47:31;102051.66;;;-0.35;100.00
42385;BME280;28042;43.986;22.860;2023-01-26T04:49:56;102042.28;;;-0.28;100.00
42385;BME280;28042;43.986;22.860;2023-01-26T04:52:22;102050.22;;;-0.26;100.00
42385;BME280;28042;43.986;22.860;2023-01-26T04:54:47;102044.69;;;-0.23;100.00
42385;BME280;28042;43.986;22.860;2023-01-26T04:57:13;102041.84;;;-0.35;100.00
42385;BME280;28042;43.986;22.860;2023-01-26T04:59:38;102039.16;;;-0.35;100.00
42385;BME280;28042;43.986;22.860;2023-01-26T05:02:03;102038.00;;;-0.31;100.00
42385;BME280;28042;43.986;22.860;2023-01-26T05:04:29;102039.50;;;-0.26;100.00
42385;BME280;28042;43.986;22.860;2023-01-26T05:06:54;102032.44;;;-0.28;100.00
42385;BME280;28042;43.986;22.860;2023-01-26T05:09:19;102037.13;;;-0.31;100.00
42385;BME280;28042;43.986;22.860;2023-01-26T05:11:44;102036.47;;;-0.35;100.00
42385;BME280;28042;43.986;22.860;2023-01-26T05:14:10;102034.06;;;-0.39;100.00
42385;BME280;28042;43.986;22.860;2023-01-26T05:16:35;102037.69;;;-0.40;100.00
42385;BME280;28042;43.986;22.860;2023-01-26T05:19:00;102038.66;;;-0.41;100.00
42385;BME280;28042;43.986;22.860;2023-01-26T05:21:26;102047.19;;;-0.35;100.00
42385;BME280;28042;43.986;22.860;2023-01-26T05:23:52;102055.78;;;-0.30;100.00
42385;BME280;28042;43.986;22.860;2023-01-26T05:26:17;102044.09;;;-0.29;100.00
42385;BME280;28042;43.986;22.860;2023-01-26T05:28:43;102042.00;;;-0.38;100.00
42385;BME280;28042;43.986;22.860;2023-01-26T05:31:08;102055.19;;;-0.49;100.00
42385;BME280;28042;43.986;22.860;2023-01-26T05:33:33;102048.13;;;-0.50;100.00
42385;BME280;28042;43.986;22.860;2023-01-26T05:36:02;102048.78;;;-0.46;100.00
42385;BME280;28042;43.986;22.860;2023-01-26T05:38:28;102048.97;;;-0.49;100.00
42385;BME280;28042;43.986;22.860;2023-01-26T05:40:53;102039.97;;;-0.48;100.00
42385;BME280;28042;43.986;22.860;2023-01-26T05:43:18;102047.25;;;-0.50;100.00
42385;BME280;28042;43.986;22.860;2023-01-26T05:45:44;102051.94;;;-0.54;100.00
42385;BME280;28042;43.986;22.860;2023-01-26T05:48:09;102047.16;;;-0.49;100.00
42385;BME280;28042;43.986;22.860;2023-01-26T05:50:34;102049.28;;;-0.40;100.00
42385;BME280;28042;43.986;22.860;2023-01-26T05:53:00;102053.41;;;-0.34;100.00
42385;BME280;28042;43.986;22.860;2023-01-26T05:55:27;102049.78;;;-0.33;100.00
42385;BME280;28042;43.986;22.860;2023-01-26T05:57:52;102047.56;;;-0.41;100.00
42385;BME280;28042;43.986;22.860;2023-01-26T06:00:18;102040.63;;;-0.45;100.00
42385;BME280;28042;43.986;22.860;2023-01-26T06:02:43;102031.28;;;-0.38;100.00
42385;BME280;28042;43.986;22.860;2023-01-26T06:05:08;102039.91;;;-0.33;100.00
42385;BME280;28042;43.986;22.860;2023-01-26T06:07:34;102029.19;;;-0.33;100.00
42385;BME280;28042;43.986;22.860;2023-01-26T06:09:59;102027.84;;;-0.40;100.00
42385;BME280;28042;43.986;22.860;2023-01-26T06:12:24;102024.84;;;-0.35;100.00
42385;BME280;28042;43.986;22.860;2023-01-26T06:14:52;102016.34;;;-0.28;100.00
42385;BME280;28042;43.986;22.860;2023-01-26T06:17:17;102015.78;;;-0.33;100.00
42385;BME280;28042;43.986;22.860;2023-01-26T06:19:43;102016.91;;;-0.37;100.00
42385;BME280;28042;43.986;22.860;2023-01-26T06:22:08;102015.03;;;-0.35;100.00
42385;BME280;28042;43.986;22.860;2023-01-26T06:24:34;102023.81;;;-0.33;100.00
42385;BME280;28042;43.986;22.860;2023-01-26T06:26:59;102014.25;;;-0.51;100.00
42385;BME280;28042;43.986;22.860;2023-01-26T06:29:25;102014.81;;;-0.60;100.00
42385;BME280;28042;43.986;22.860;2023-01-26T06:31:50;102010.97;;;-0.56;100.00
42385;BME280;28042;43.986;22.860;2023-01-26T06:34:16;102019.75;;;-0.54;100.00
42385;BME280;28042;43.986;22.860;2023-01-26T06:36:41;102018.41;;;-0.61;100.00
42385;BME280;28042;43.986;22.860;2023-01-26T06:39:07;102014.59;;;-0.57;100.00
42385;BME280;28042;43.986;22.860;2023-01-26T06:41:34;102025.31;;;-0.57;100.00
42385;BME280;28042;43.986;22.860;2023-01-26T06:43:59;102025.13;;;-0.54;100.00
42385;BME280;28042;43.986;22.860;2023-01-26T06:46:25;102028.97;;;-0.58;100.00
42385;BME280;28042;43.986;22.860;2023-01-26T06:48:50;102028.41;;;-0.49;100.00
42385;BME280;28042;43.986;22.860;2023-01-26T06:54:13;102024.66;;;-0.46;100.00
42385;BME280;28042;43.986;22.860;2023-01-26T06:56:32;102019.19;;;-0.45;100.00
42385;BME280;28042;43.986;22.860;2023-01-26T06:58:57;102017.88;;;-0.38;100.00
42385;BME280;28042;43.986;22.860;2023-01-26T07:01:23;102016.06;;;-0.51;100.00
42385;BME280;28042;43.986;22.860;2023-01-26T07:03:50;102012.88;;;-0.58;100.00
42385;BME280;28042;43.986;22.860;2023-01-26T07:06:16;102021.50;;;-0.53;100.00
42385;BME280;28042;43.986;22.860;2023-01-26T07:08:41;102013.53;;;-0.54;100.00
42385;BME280;28042;43.986;22.860;2023-01-26T07:11:07;102017.19;;;-0.55;100.00
42385;BME280;28042;43.986;22.860;2023-01-26T07:13:33;102009.63;;;-0.63;100.00
42385;BME280;28042;43.986;22.860;2023-01-26T07:18:30;102004.28;;;-0.49;100.00
42385;BME280;28042;43.986;22.860;2023-01-26T07:21:02;101997.75;;;-0.45;100.00
42385;BME280;28042;43.986;22.860;2023-01-26T07:23:27;101998.53;;;-0.29;100.00
42385;BME280;28042;43.986;22.860;2023-01-26T07:25:53;101997.19;;;-0.36;100.00
42385;BME280;28042;43.986;22.860;2023-01-26T07:28:18;101994.22;;;-0.31;100.00
42385;BME280;28042;43.986;22.860;2023-01-26T07:30:43;101995.28;;;-0.19;100.00
42385;BME280;28042;43.986;22.860;2023-01-26T07:33:09;101983.50;;;-0.31;100.00
42385;BME280;28042;43.986;22.860;2023-01-26T07:35:34;101986.47;;;-0.21;100.00
42385;BME280;28042;43.986;22.860;2023-01-26T07:38:02;101984.16;;;-0.28;100.00
42385;BME280;28042;43.986;22.860;2023-01-26T07:40:27;101975.66;;;-0.20;100.00
42385;BME280;28042;43.986;22.860;2023-01-26T07:42:54;101972.59;;;-0.28;100.00
42385;BME280;28042;43.986;22.860;2023-01-26T07:45:19;101967.91;;;-0.24;100.00
42385;BME280;28042;43.986;22.860;2023-01-26T07:47:44;101971.34;;;-0.37;100.00
42385;BME280;28042;43.986;22.860;2023-01-26T07:50:10;101969.72;;;-0.39;100.00
42385;BME280;28042;43.986;22.860;2023-01-26T07:52:37;101961.41;;;-0.35;100.00
42385;BME280;28042;43.986;22.860;2023-01-26T07:55:02;101964.25;;;-0.23;100.00
42385;BME280;28042;43.986;22.860;2023-01-26T07:57:27;101957.34;;;-0.28;100.00
42385;BME280;28042;43.986;22.860;2023-01-26T07:59:53;101962.34;;;-0.21;100.00
42385;BME280;28042;43.986;22.860;2023-01-26T08:02:18;101958.44;;;-0.30;100.00
42385;BME280;28042;43.986;22.860;2023-01-26T08:04:43;101961.22;;;-0.32;100.00
42385;BME280;28042;43.986;22.860;2023-01-26T08:07:09;101966.94;;;-0.23;100.00
42385;BME280;28042;43.986;22.860;2023-01-26T08:09:34;101959.28;;;-0.15;100.00
42385;BME280;28042;43.986;22.860;2023-01-26T08:12:00;101965.03;;;-0.21;100.00
42385;BME280;28042;43.986;22.860;2023-01-26T08:14:25;101961.97;;;-0.15;100.00
42385;BME280;28042;43.986;22.860;2023-01-26T08:16:51;101976.41;;;-0.04;100.00
42385;BME280;28042;43.986;22.860;2023-01-26T08:19:16;101966.44;;;-0.02;100.00
42385;BME280;28042;43.986;22.860;2023-01-26T08:21:42;101962.22;;;-0.06;100.00
42385;BME280;28042;43.986;22.860;2023-01-26T08:24:09;101959.66;;;-0.07;100.00
42385;BME280;28042;43.986;22.860;2023-01-26T08:26:35;101950.00;;;-0.24;100.00
42385;BME280;28042;43.986;22.860;2023-01-26T08:29:00;101964.75;;;-0.17;100.00
42385;BME280;28042;43.986;22.860;2023-01-26T08:31:25;101956.78;;;-0.18;100.00
42385;BME280;28042;43.986;22.860;2023-01-26T08:33:52;101954.31;;;-0.36;100.00
42385;BME280;28042;43.986;22.860;2023-01-26T08:36:19;101962.34;;;-0.21;100.00
42385;BME280;28042;43.986;22.860;2023-01-26T08:38:44;101961.47;;;-0.22;100.00
42385;BME280;28042;43.986;22.860;2023-01-26T08:41:10;101961.75;;;-0.12;100.00
42385;BME280;28042;43.986;22.860;2023-01-26T08:43:36;101965.19;;;-0.10;100.00
42385;BME280;28042;43.986;22.860;2023-01-26T08:46:01;101962.53;;;-0.24;100.00
42385;BME280;28042;43.986;22.860;2023-01-26T08:48:27;101953.53;;;-0.23;100.00
42385;BME280;28042;43.986;22.860;2023-01-26T08:51:00;101951.78;;;-0.10;100.00
42385;BME280;28042;43.986;22.860;2023-01-26T08:53:28;101958.69;;;-0.06;100.00
42385;BME280;28042;43.986;22.860;2023-01-26T08:55:54;101956.47;;;0.01;100.00
42385;BME280;28042;43.986;22.860;2023-01-26T08:58:19;101955.22;;;0.06;100.00
42385;BME280;28042;43.986;22.860;2023-01-26T09:00:44;101961.22;;;-0.17;100.00
42385;BME280;28042;43.986;22.860;2023-01-26T09:03:10;101956.50;;;-0.14;100.00
42385;BME280;28042;43.986;22.860;2023-01-26T09:05:37;101943.94;;;-0.13;100.00
42385;BME280;28042;43.986;22.860;2023-01-26T09:08:03;101944.59;;;-0.10;100.00
42385;BME280;28042;43.986;22.860;2023-01-26T09:10:28;101929.78;;;-0.15;100.00
42385;BME280;28042;43.986;22.860;2023-01-26T09:12:55;101934.81;;;0.04;100.00
42385;BME280;28042;43.986;22.860;2023-01-26T09:15:20;101930.88;;;0.09;100.00
42385;BME280;28042;43.986;22.860;2023-01-26T09:17:49;101926.66;;;0.05;100.00
42385;BME280;28042;43.986;22.860;2023-01-26T09:20:15;101916.16;;;0.02;100.00
42385;BME280;28042;43.986;22.860;2023-01-26T09:22:40;101920.19;;;-0.19;100.00
42385;BME280;28042;43.986;22.860;2023-01-26T09:25:06;101916.38;;;-0.15;100.00
42385;BME280;28042;43.986;22.860;2023-01-26T09:27:32;101909.66;;;-0.08;100.00
42385;BME280;28042;43.986;22.860;2023-01-26T09:29:57;101904.84;;;-0.03;100.00
42385;BME280;28042;43.986;22.860;2023-01-26T09:32:23;101899.84;;;0.05;100.00
42385;BME280;28042;43.986;22.860;2023-01-26T09:34:49;101901.78;;;0.03;100.00
42385;BME280;28042;43.986;22.860;2023-01-26T09:37:14;101901.78;;;0.03;100.00
42385;BME280;28042;43.986;22.860;2023-01-26T09:39:39;101898.94;;;-0.08;100.00
42385;BME280;28042;43.986;22.860;2023-01-26T09:50:30;101881.63;;;0.10;100.00
42385;BME280;28042;43.986;22.860;2023-01-26T09:53:10;101881.38;;;0.01;100.00
42385;BME280;28042;43.986;22.860;2023-01-26T09:55:37;101873.84;;;-0.07;100.00
42385;BME280;28042;43.986;22.860;2023-01-26T09:58:11;101873.22;;;0.02;100.00
42385;BME280;28042;43.986;22.860;2023-01-26T10:00:41;101867.66;;;0.05;100.00
42385;BME280;28042;43.986;22.860;2023-01-26T10:07:59;101845.44;;;0.43;100.00
42385;BME280;28042;43.986;22.860;2023-01-26T10:10:26;101839.72;;;0.35;100.00
42385;BME280;28042;43.986;22.860;2023-01-26T10:12:53;101842.22;;;0.38;100.00
42385;BME280;28042;43.986;22.860;2023-01-26T10:15:38;101842.00;;;0.41;100.00
42385;BME280;28042;43.986;22.860;2023-01-26T10:18:08;101842.56;;;0.46;100.00
42385;BME280;28042;43.986;22.860;2023-01-26T10:20:41;101839.44;;;0.52;100.00
42385;BME280;28042;43.986;22.860;2023-01-26T10:23:12;101829.88;;;0.48;100.00
42385;BME280;28042;43.986;22.860;2023-01-26T10:25:40;101824.84;;;0.56;100.00
42385;BME280;28042;43.986;22.860;2023-01-26T10:28:13;101818.75;;;0.54;100.00
42385;BME280;28042;43.986;22.860;2023-01-26T10:30:39;101808.72;;;0.43;100.00
42385;BME280;28042;43.986;22.860;2023-01-26T10:33:07;101797.25;;;0.41;100.00
42385;BME280;28042;43.986;22.860;2023-01-26T10:35:33;101798.75;;;0.58;100.00
42385;BME280;28042;43.986;22.860;2023-01-26T10:37:59;101806.69;;;0.60;100.00
42385;BME280;28042;43.986;22.860;2023-01-26T10:40:24;101786.41;;;0.68;100.00
42385;BME280;28042;43.986;22.860;2023-01-26T10:42:57;101781.34;;;0.51;100.00
42385;BME280;28042;43.986;22.860;2023-01-26T10:45:29;101783.84;;;0.54;100.00
42385;BME280;28042;43.986;22.860;2023-01-26T10:50:26;101772.75;;;0.33;100.00
42385;BME280;28042;43.986;22.860;2023-01-26T10:52:56;101773.09;;;0.28;100.00
42385;BME280;28042;43.986;22.860;2023-01-26T10:55:22;101772.22;;;0.41;100.00
42385;BME280;28042;43.986;22.860;2023-01-26T10:57:47;101769.66;;;0.52;100.00
42385;BME280;28042;43.986;22.860;2023-01-26T11:00:23;101760.00;;;0.37;100.00
42385;BME280;28042;43.986;22.860;2023-01-26T11:02:50;101748.63;;;0.46;100.00
42385;BME280;28042;43.986;22.860;2023-01-26T11:05:23;101751.41;;;0.57;100.00
42385;BME280;28042;43.986;22.860;2023-01-26T11:07:49;101745.19;;;0.56;100.00
42385;BME280;28042;43.986;22.860;2023-01-26T11:12:50;101731.22;;;0.64;100.00
42385;BME280;28042;43.986;22.860;2023-01-26T11:15:22;101728.84;;;0.34;100.00
42385;BME280;28042;43.986;22.860;2023-01-26T11:26:04;101712.22;;;0.29;100.00
42385;BME280;28042;43.986;22.860;2023-01-26T11:46:48;101682.28;;;0.22;100.00
42385;BME280;28042;43.986;22.860;2023-01-26T11:52:08;101689.56;;;0.33;100.00
42385;BME280;28042;43.986;22.860;2023-01-26T11:57:12;101675.09;;;0.36;100.00
42385;BME280;28042;43.986;22.860;2023-01-26T11:59:45;101670.44;;;0.50;100.00
42385;BME280;28042;43.986;22.860;2023-01-26T12:04:37;101668.72;;;0.62;100.00
42385;BME280;28042;43.986;22.860;2023-01-26T12:07:14;101663.25;;;0.51;100.00
42385;BME280;28042;43.986;22.860;2023-01-26T12:09:46;101667.28;;;0.69;100.00
42385;BME280;28042;43.986;22.860;2023-01-26T12:17:28;101650.72;;;0.39;100.00
42385;BME280;28042;43.986;22.860;2023-01-26T12:22:35;101636.75;;;0.34;100.00
42385;BME280;28042;43.986;22.860;2023-01-26T12:25:14;101638.22;;;0.50;100.00
42385;BME280;28042;43.986;22.860;2023-01-26T12:27:46;101625.34;;;0.43;100.00
42385;BME280;28042;43.986;22.860;2023-01-26T12:32:48;101621.22;;;0.75;100.00
42385;BME280;28042;43.986;22.860;2023-01-26T12:35:13;101611.06;;;0.92;100.00
42385;BME280;28042;43.986;22.860;2023-01-26T12:40:11;101611.50;;;0.49;100.00
42385;BME280;28042;43.986;22.860;2023-01-26T12:45:35;101579.38;;;0.60;100.00
42385;BME280;28042;43.986;22.860;2023-01-26T12:48:06;101581.38;;;0.45;100.00
42385;BME280;28042;43.986;22.860;2023-01-26T12:50:40;101575.75;;;0.48;100.00
42385;BME280;28042;43.986;22.860;2023-01-26T12:53:15;101578.31;;;0.63;100.00
42385;BME280;28042;43.986;22.860;2023-01-26T12:58:16;101586.84;;;0.80;100.00
42385;BME280;28042;43.986;22.860;2023-01-26T13:00:55;101579.97;;;0.76;100.00
42385;BME280;28042;43.986;22.860;2023-01-26T13:03:27;101573.91;;;0.85;100.00
42385;BME280;28042;43.986;22.860;2023-01-26T13:05:58;101577.41;;;0.75;100.00
42385;BME280;28042;43.986;22.860;2023-01-26T13:10:58;101561.25;;;0.88;100.00
42385;BME280;28042;43.986;22.860;2023-01-26T13:13:34;101558.53;;;0.64;100.00
42385;BME280;28042;43.986;22.860;2023-01-26T13:18:47;101557.09;;;0.47;100.00
42385;BME280;28042;43.986;22.860;2023-01-26T13:21:24;101556.03;;;0.37;100.00
42385;BME280;28042;43.986;22.860;2023-01-26T13:23:50;101561.38;;;0.49;100.00
42385;BME280;28042;43.986;22.860;2023-01-26T13:26:16;101567.94;;;0.45;100.00
42385;BME280;28042;43.986;22.860;2023-01-26T13:28:43;101578.56;;;0.47;100.00
42385;BME280;28042;43.986;22.860;2023-01-26T13:31:09;101572.66;;;0.42;100.00
42385;BME280;28042;43.986;22.860;2023-01-26T13:33:34;101564.78;;;0.51;100.00
42385;BME280;28042;43.986;22.860;2023-01-26T13:36:03;101565.03;;;0.48;100.00
42385;BME280;28042;43.986;22.860;2023-01-26T13:38:34;101555.97;;;0.62;100.00
42385;BME280;28042;43.986;22.860;2023-01-26T13:41:00;101551.28;;;0.53;100.00
42385;BME280;28042;43.986;22.860;2023-01-26T13:46:37;101547.56;;;0.67;100.00
42385;BME280;28042;43.986;22.860;2023-01-26T13:48:54;101533.59;;;0.74;100.00
42385;BME280;28042;43.986;22.860;2023-01-26T13:53:46;101535.72;;;0.69;100.00
42385;BME280;28042;43.986;22.860;2023-01-26T13:56:23;101537.47;;;0.70;100.00
42385;BME280;28042;43.986;22.860;2023-01-26T13:58:48;101532.69;;;0.50;100.00
42385;BME280;28042;43.986;22.860;2023-01-26T14:01:14;101543.31;;;0.51;100.00
42385;BME280;28042;43.986;22.860;2023-01-26T14:03:41;101537.88;;;0.53;100.00
42385;BME280;28042;43.986;22.860;2023-01-26T14:06:10;101536.28;;;0.38;100.00
42385;BME280;28042;43.986;22.860;2023-01-26T14:08:38;101537.34;;;0.48;100.00
42385;BME280;28042;43.986;22.860;2023-01-26T14:11:04;101535.19;;;0.53;100.00